Time;durP1;ratioP1;P1;durP2;ratioP2;P2;SDS_P1;SDS_P2;PMS_P1;PMS_P2;Temp;Humidity;BMP_temperature;BMP_pressure;BME280_temperature;BME280_humidity;BME280_pressure;Samples;Min_cycle;Max_cycle;Signal;HPM_P1;HPM_P2
2022/03/11 00:00:52;;;;;;;12.77;5.97;;;-7.00;99.90;;;;;;5092699;28;20237;-55
2022/03/11 00:03:20;;;;;;;13.43;6.43;;;-7.00;99.90;;;;;;5074503;28;20690;-56
2022/03/11 00:05:46;;;;;;;15.80;6.77;;;-7.00;99.90;;;;;;5058402;28;20191;-59
2022/03/11 00:08:11;;;;;;;13.03;5.77;;;-7.00;99.90;;;;;;5092144;28;20401;-55
2022/03/11 00:10:38;;;;;;;15.23;6.40;;;-7.00;99.90;;;;;;5092605;28;20297;-54
2022/03/11 00:13:04;;;;;;;14.10;5.57;;;-7.10;99.90;;;;;;5092393;28;20264;-55
2022/03/11 00:15:30;;;;;;;17.83;6.00;;;-7.10;99.90;;;;;;5092570;28;20602;-56
2022/03/11 00:17:56;;;;;;;15.73;6.17;;;-7.10;99.90;;;;;;5092376;28;20549;-58
2022/03/11 00:20:22;;;;;;;13.53;5.67;;;-7.10;99.90;;;;;;5092336;28;20173;-56
2022/03/11 00:22:50;;;;;;;18.13;6.67;;;-7.20;99.90;;;;;;5073933;28;20773;-57
2022/03/11 00:25:16;;;;;;;14.07;6.10;;;-7.30;99.90;;;;;;5091851;28;21011;-56
2022/03/11 00:27:42;;;;;;;14.53;6.53;;;-7.30;99.90;;;;;;5092575;28;20903;-59
2022/03/11 00:30:09;;;;;;;14.40;5.87;;;-7.40;99.90;;;;;;5092154;28;20398;-57
2022/03/11 00:32:35;;;;;;;10.27;4.67;;;-7.40;99.90;;;;;;5091905;28;20945;-57
2022/03/11 00:35:01;;;;;;;11.90;6.07;;;-7.50;99.90;;;;;;5092266;28;20644;-57
2022/03/11 00:37:27;;;;;;;15.57;6.10;;;-7.50;99.90;;;;;;5091549;28;20508;-55
2022/03/11 00:39:53;;;;;;;14.60;6.37;;;-7.60;99.90;;;;;;5091881;28;20588;-59
2022/03/11 00:42:19;;;;;;;10.87;4.53;;;-7.70;99.90;;;;;;5092045;28;20172;-57
2022/03/11 00:44:44;;;;;;;12.57;6.00;;;-7.70;99.90;;;;;;5091925;28;20184;-56
2022/03/11 00:47:11;;;;;;;13.80;6.23;;;-7.80;99.90;;;;;;5091535;28;20180;-57
2022/03/11 00:49:37;;;;;;;16.93;6.37;;;-7.90;99.90;;;;;;5092224;28;20256;-57
2022/03/11 00:52:04;;;;;;;13.17;5.03;;;-8.00;99.90;;;;;;5091597;28;20413;-56
2022/03/11 00:54:30;;;;;;;11.80;5.73;;;-8.10;99.90;;;;;;5092047;28;20889;-62
2022/03/11 00:56:56;;;;;;;14.70;5.77;;;-8.10;99.90;;;;;;5091728;28;20557;-56
2022/03/11 00:59:22;;;;;;;15.17;6.53;;;-8.10;99.90;;;;;;5073722;28;20250;-57
2022/03/11 01:01:48;;;;;;;16.67;5.67;;;-8.20;99.90;;;;;;5092022;28;20211;-58
2022/03/11 01:04:14;;;;;;;17.60;5.93;;;-8.30;99.90;;;;;;5091353;28;20185;-57
2022/03/11 01:06:40;;;;;;;15.40;6.27;;;-8.40;99.90;;;;;;5091802;28;20239;-58
2022/03/11 01:09:06;;;;;;;14.47;5.90;;;-8.40;99.90;;;;;;5091635;28;20894;-66
2022/03/11 01:11:33;;;;;;;16.47;6.13;;;-8.50;99.90;;;;;;5091639;28;20181;-57
2022/03/11 01:13:59;;;;;;;12.53;5.20;;;-8.50;99.90;;;;;;5091723;28;20739;-57
2022/03/11 01:16:25;;;;;;;13.77;6.90;;;-8.50;99.90;;;;;;5091539;28;20583;-55
2022/03/11 01:18:50;;;;;;;12.93;5.80;;;-8.50;99.90;;;;;;5091504;28;20245;-56
2022/03/11 01:21:17;;;;;;;16.43;5.97;;;-8.50;99.90;;;;;;5091449;28;20651;-58
2022/03/11 01:23:43;;;;;;;14.30;6.87;;;-8.60;99.90;;;;;;5091658;28;20176;-59
2022/03/11 01:26:11;;;;;;;14.97;5.63;;;-8.60;99.90;;;;;;5091338;28;20496;-59
2022/03/11 01:28:39;;;;;;;15.47;5.70;;;-8.70;99.90;;;;;;5091745;28;20607;-58
2022/03/11 01:31:05;;;;;;;14.13;6.53;;;-8.70;99.90;;;;;;5091389;28;20448;-57
2022/03/11 01:33:30;;;;;;;17.70;6.83;;;-8.70;99.90;;;;;;5090743;28;20968;-58
2022/03/11 01:35:56;;;;;;;16.27;5.73;;;-8.80;99.90;;;;;;5091487;28;20223;-59
2022/03/11 01:38:22;;;;;;;16.63;5.73;;;-8.80;99.90;;;;;;5072702;28;20180;-55
2022/03/11 01:40:48;;;;;;;21.63;7.20;;;-8.90;99.90;;;;;;5091443;28;20540;-59
2022/03/11 01:43:15;;;;;;;15.07;5.50;;;-8.90;99.90;;;;;;5091326;28;20544;-59
2022/03/11 01:45:41;;;;;;;19.20;5.93;;;-8.90;99.90;;;;;;5091963;28;20184;-57
2022/03/11 01:48:09;;;;;;;17.33;6.50;;;-8.90;99.90;;;;;;5091106;28;20402;-64
2022/03/11 01:50:35;;;;;;;15.37;5.50;;;-8.90;99.90;;;;;;5091499;28;20420;-59
2022/03/11 01:53:01;;;;;;;13.40;5.33;;;-8.90;99.90;;;;;;5091545;28;20405;-57
2022/03/11 01:55:27;;;;;;;20.00;7.10;;;-9.00;99.90;;;;;;5091234;28;20460;-56
2022/03/11 01:57:53;;;;;;;16.87;7.33;;;-9.00;99.90;;;;;;5094981;28;20173;-58
2022/03/11 02:00:19;;;;;;;19.87;5.87;;;-9.00;99.90;;;;;;5095016;28;20773;-57
2022/03/11 02:02:45;;;;;;;13.30;5.53;;;-9.00;99.90;;;;;;5095199;28;20181;-56
2022/03/11 02:05:11;;;;;;;16.90;6.23;;;-9.10;99.90;;;;;;5095065;28;20187;-57
2022/03/11 02:07:37;;;;;;;18.37;6.60;;;-9.10;99.90;;;;;;5095294;28;20759;-58
2022/03/11 02:10:03;;;;;;;11.83;5.07;;;-9.10;99.90;;;;;;5090594;28;20517;-56
2022/03/11 02:12:32;;;;;;;13.17;5.67;;;-9.10;99.90;;;;;;5083253;28;20317;-57
2022/03/11 02:15:01;;;;;;;13.40;5.47;;;-9.10;99.90;;;;;;5074812;28;20450;-57
2022/03/11 02:17:26;;;;;;;10.57;4.17;;;-9.20;99.90;;;;;;5082205;28;20436;-57
2022/03/11 02:19:52;;;;;;;12.73;5.10;;;-9.20;99.90;;;;;;5094978;28;20441;-56
2022/03/11 02:22:22;;;;;;;15.63;6.30;;;-9.20;99.90;;;;;;5094989;28;20219;-57
2022/03/11 02:24:48;;;;;;;13.23;5.90;;;-9.20;99.90;;;;;;5094720;28;20189;-59
2022/03/11 02:27:13;;;;;;;16.63;7.07;;;-9.20;99.90;;;;;;5094374;28;20402;-59
2022/03/11 02:29:39;;;;;;;12.63;6.27;;;-9.20;99.90;;;;;;5094770;28;20207;-57
2022/03/11 02:32:05;;;;;;;8.70;3.77;;;-9.20;99.90;;;;;;5094297;28;20958;-57
2022/03/11 02:34:31;;;;;;;13.73;6.47;;;-9.30;99.90;;;;;;5076516;28;20325;-58
2022/03/11 02:36:57;;;;;;;17.13;6.07;;;-9.30;99.90;;;;;;5094580;28;20457;-58
2022/03/11 02:39:23;;;;;;;17.93;7.10;;;-9.30;99.90;;;;;;5076247;28;20455;-56
2022/03/11 02:41:51;;;;;;;14.90;5.97;;;-9.30;99.90;;;;;;5094414;28;20188;-57
2022/03/11 02:44:17;;;;;;;14.67;5.97;;;-9.30;99.90;;;;;;5093973;28;20205;-58
2022/03/11 02:46:43;;;;;;;13.03;4.63;;;-9.30;99.90;;;;;;5094638;28;20413;-55
2022/03/11 02:49:08;;;;;;;14.57;5.53;;;-9.30;99.90;;;;;;5094793;28;20501;-57
2022/03/11 02:51:34;;;;;;;19.00;6.83;;;-9.40;99.90;;;;;;5094173;28;20634;-57
2022/03/11 02:54:00;;;;;;;15.97;6.90;;;-9.40;99.90;;;;;;5094406;28;20190;-57
2022/03/11 02:56:26;;;;;;;21.07;7.53;;;-9.40;99.90;;;;;;5076078;28;20591;-55
2022/03/11 02:58:51;;;;;;;13.90;5.13;;;-9.40;99.90;;;;;;5094563;28;20188;-59
2022/03/11 03:01:17;;;;;;;15.83;6.60;;;-9.40;99.90;;;;;;5094677;28;20181;-58
2022/03/11 03:03:43;;;;;;;16.17;6.43;;;-9.50;99.90;;;;;;5076082;28;20181;-58
2022/03/11 03:06:09;;;;;;;18.63;6.10;;;-9.50;99.90;;;;;;5076141;28;20185;-58
2022/03/11 03:08:34;;;;;;;16.67;6.17;;;-9.50;99.90;;;;;;5092740;28;20184;-57
2022/03/11 03:11:00;;;;;;;17.03;5.53;;;-9.50;99.90;;;;;;5094191;28;20229;-55
2022/03/11 03:13:27;;;;;;;16.13;7.23;;;-9.50;99.90;;;;;;5093444;28;20205;-59
2022/03/11 03:15:52;;;;;;;10.33;4.97;;;-9.40;99.90;;;;;;5093954;28;20457;-59
2022/03/11 03:18:18;;;;;;;17.90;6.77;;;-9.50;99.90;;;;;;5093825;28;20477;-57
2022/03/11 03:20:44;;;;;;;10.87;4.63;;;-9.40;99.90;;;;;;5093890;28;20633;-59
2022/03/11 03:23:10;;;;;;;6.07;3.83;;;-9.50;99.90;;;;;;5093555;28;20227;-59
2022/03/11 03:25:36;;;;;;;10.83;4.87;;;-9.50;99.90;;;;;;5093395;28;20437;-57
2022/03/11 03:28:02;;;;;;;13.33;6.47;;;-9.50;99.90;;;;;;5074942;28;20539;-57
2022/03/11 03:30:28;;;;;;;11.10;5.10;;;-9.50;99.90;;;;;;5093106;28;20187;-60
2022/03/11 03:32:53;;;;;;;6.33;2.83;;;-9.50;99.90;;;;;;5071385;28;20236;-58
2022/03/11 03:35:20;;;;;;;17.13;6.87;;;-9.60;99.90;;;;;;5072808;28;20214;-59
2022/03/11 03:37:45;;;;;;;17.37;5.73;;;-9.60;99.90;;;;;;5073104;28;20185;-60
2022/03/11 03:40:11;;;;;;;10.60;5.10;;;-9.60;99.90;;;;;;5073292;28;20493;-58
2022/03/11 03:42:37;;;;;;;10.57;5.57;;;-9.60;99.90;;;;;;5072441;28;20542;-59
2022/03/11 03:45:03;;;;;;;14.60;5.93;;;-9.60;99.90;;;;;;5071581;28;20255;-57
2022/03/11 03:47:29;;;;;;;14.73;5.90;;;-9.70;99.90;;;;;;5072705;28;20181;-58
2022/03/11 03:49:55;;;;;;;15.70;5.87;;;-9.60;99.90;;;;;;5072759;28;20410;-58
2022/03/11 03:52:21;;;;;;;15.70;7.00;;;-9.70;99.90;;;;;;5073119;28;20182;-56
2022/03/11 03:54:46;;;;;;;18.00;6.90;;;-9.70;99.90;;;;;;5072916;28;20174;-56
2022/03/11 03:57:12;;;;;;;20.10;6.93;;;-9.60;99.90;;;;;;5072892;28;20192;-58
2022/03/11 03:59:39;;;;;;;18.60;6.40;;;-9.70;99.90;;;;;;5072366;28;20181;-57
2022/03/11 04:02:05;;;;;;;14.03;5.27;;;-9.60;99.90;;;;;;5072437;28;20197;-59
2022/03/11 04:04:31;;;;;;;16.70;5.93;;;-9.70;99.90;;;;;;5074219;28;20406;-58
2022/03/11 04:06:57;;;;;;;13.43;5.70;;;-9.60;99.90;;;;;;5073525;28;20185;-58
2022/03/11 04:09:23;;;;;;;13.83;5.37;;;-9.70;99.90;;;;;;5074423;28;20395;-56
2022/03/11 04:11:49;;;;;;;7.87;3.63;;;-9.70;99.90;;;;;;5075023;28;20193;-58
2022/03/11 04:14:14;;;;;;;10.53;4.97;;;-9.70;99.90;;;;;;5074566;28;20177;-59
2022/03/11 04:16:40;;;;;;;14.30;5.77;;;-9.80;99.90;;;;;;5071796;28;20573;-56
2022/03/11 04:19:06;;;;;;;10.53;4.47;;;-9.80;99.90;;;;;;5070568;28;20268;-57
2022/03/11 04:21:32;;;;;;;9.17;4.13;;;-9.80;99.90;;;;;;5071067;28;20272;-57
2022/03/11 04:23:57;;;;;;;14.70;5.60;;;-9.80;99.90;;;;;;5072324;28;20181;-57
2022/03/11 04:26:24;;;;;;;14.03;5.60;;;-9.80;99.90;;;;;;5070470;28;20181;-56
2022/03/11 04:28:50;;;;;;;14.80;6.63;;;-9.80;99.90;;;;;;5072096;28;20174;-57
2022/03/11 04:31:15;;;;;;;15.57;5.00;;;-9.80;99.90;;;;;;5071897;28;20520;-59
2022/03/11 04:33:42;;;;;;;16.07;6.37;;;-9.80;99.90;;;;;;5073209;28;20308;-59
2022/03/11 04:36:09;;;;;;;15.67;7.60;;;-9.80;99.90;;;;;;5092400;28;20215;-58
2022/03/11 04:38:35;;;;;;;6.63;3.07;;;-9.80;99.90;;;;;;5091740;28;21227;-57
2022/03/11 04:41:01;;;;;;;9.20;4.00;;;-9.80;99.90;;;;;;5073910;28;20416;-57
2022/03/11 04:43:27;;;;;;;11.37;5.33;;;-9.80;99.90;;;;;;5091852;28;20531;-57
2022/03/11 04:45:53;;;;;;;12.53;4.20;;;-9.80;99.90;;;;;;5090422;28;20508;-57
2022/03/11 04:48:19;;;;;;;16.17;5.60;;;-9.80;99.90;;;;;;5091986;28;20493;-56
2022/03/11 04:50:45;;;;;;;24.03;6.83;;;-9.80;99.90;;;;;;5092196;28;20326;-56
2022/03/11 04:53:11;;;;;;;18.80;6.80;;;-9.90;99.90;;;;;;5056627;28;20199;-60
2022/03/11 04:55:36;;;;;;;10.23;4.57;;;-9.90;99.90;;;;;;5091397;28;20558;-59
2022/03/11 04:58:02;;;;;;;12.33;5.83;;;-9.90;99.90;;;;;;5091867;28;20168;-58
2022/03/11 05:00:28;;;;;;;24.10;6.87;;;-9.90;99.90;;;;;;5091504;28;20267;-56
2022/03/11 05:02:54;;;;;;;14.07;6.20;;;-9.90;99.90;;;;;;5091748;28;20936;-56
2022/03/11 05:05:21;;;;;;;19.30;6.23;;;-9.80;99.90;;;;;;5073331;28;20617;-60
2022/03/11 05:07:47;;;;;;;14.10;5.90;;;-9.80;99.90;;;;;;5090984;28;20220;-59
2022/03/11 05:10:16;;;;;;;14.00;4.57;;;-9.70;99.90;;;;;;5091375;28;20394;-59
2022/03/11 05:12:43;;;;;;;15.70;7.43;;;-9.70;99.90;;;;;;5091220;28;20420;-57
2022/03/11 05:15:10;;;;;;;18.17;5.83;;;-9.60;99.90;;;;;;5091355;28;20945;-58
2022/03/11 05:17:36;;;;;;;15.37;5.93;;;-9.60;99.90;;;;;;5081663;28;20402;-57
2022/03/11 05:20:06;;;;;;;14.10;5.70;;;-9.60;99.90;;;;;;5071232;28;20403;-57
2022/03/11 05:22:32;;;;;;;13.43;4.63;;;-9.50;99.90;;;;;;5070971;28;20405;-58
2022/03/11 05:24:58;;;;;;;11.53;5.10;;;-9.50;99.90;;;;;;5071012;28;20464;-60
2022/03/11 05:27:24;;;;;;;10.70;4.47;;;-9.40;99.90;;;;;;5052341;28;20407;-58
2022/03/11 05:29:50;;;;;;;14.53;6.07;;;-9.40;99.90;;;;;;5070644;28;20482;-57
2022/03/11 05:32:19;;;;;;;13.67;5.63;;;-9.30;99.90;;;;;;5058311;28;20305;-57
2022/03/11 05:34:45;;;;;;;10.47;4.00;;;-9.30;99.90;;;;;;5074219;28;20169;-57
2022/03/11 05:37:11;;;;;;;10.83;5.33;;;-9.20;99.90;;;;;;5074896;28;20409;-59
2022/03/11 05:39:37;;;;;;;6.93;3.37;;;-9.20;99.90;;;;;;5072918;28;21094;-58
2022/03/11 05:42:04;;;;;;;17.23;7.22;;;-9.20;99.90;;;;;;5074636;28;20407;-65
2022/03/11 05:44:30;;;;;;;12.63;4.33;;;-9.10;99.90;;;;;;5074489;28;20205;-65
2022/03/11 05:46:56;;;;;;;12.33;5.10;;;-9.10;99.90;;;;;;5073102;28;20457;-63
2022/03/11 05:49:22;;;;;;;15.37;6.37;;;-9.10;99.90;;;;;;5056627;28;20210;-67
2022/03/11 05:51:48;;;;;;;19.70;9.00;;;-9.10;99.90;;;;;;5074494;28;20434;-63
2022/03/11 05:54:14;;;;;;;13.00;5.87;;;-9.00;99.90;;;;;;5074370;28;20491;-63
2022/03/11 05:56:40;;;;;;;11.90;4.67;;;-9.00;99.90;;;;;;5072364;28;20218;-64
2022/03/11 05:59:06;;;;;;;17.30;5.17;;;-9.00;99.90;;;;;;5074326;28;20177;-66
2022/03/11 06:01:35;;;;;;;14.80;5.20;;;-8.90;99.90;;;;;;5074103;28;20264;-65
2022/03/11 06:04:02;;;;;;;14.17;5.33;;;-8.90;99.90;;;;;;5074221;28;20183;-59
2022/03/11 06:06:30;;;;;;;15.80;5.03;;;-8.80;99.90;;;;;;5073395;28;20423;-58
2022/03/11 06:08:56;;;;;;;10.90;4.97;;;-8.70;99.90;;;;;;5072895;28;20422;-61
2022/03/11 06:11:22;;;;;;;17.13;5.00;;;-8.70;99.90;;;;;;5073973;28;20963;-62
2022/03/11 06:13:49;;;;;;;13.23;5.23;;;-8.70;99.90;;;;;;5073818;28;20471;-56
2022/03/11 06:16:15;;;;;;;10.23;4.27;;;-8.70;99.90;;;;;;5072155;28;20638;-54
2022/03/11 06:18:41;;;;;;;11.60;4.90;;;-8.60;99.90;;;;;;5071674;28;20491;-55
2022/03/11 06:21:08;;;;;;;11.80;4.10;;;-8.60;99.90;;;;;;5067961;28;20303;-55
2022/03/11 06:23:35;;;;;;;11.73;6.10;;;-8.50;99.90;;;;;;5059947;28;20628;-55
2022/03/11 06:26:02;;;;;;;16.70;5.73;;;-8.50;99.90;;;;;;5066123;28;20440;-55
2022/03/11 06:28:27;;;;;;;14.60;4.60;;;-8.40;99.90;;;;;;5057164;28;20463;-58
2022/03/11 06:30:53;;;;;;;7.57;2.60;;;-8.30;99.90;;;;;;5066278;28;20422;-57
2022/03/11 06:33:20;;;;;;;9.77;4.17;;;-8.30;99.90;;;;;;5075019;28;20716;-57
2022/03/11 06:35:47;;;;;;;15.17;6.07;;;-8.20;99.90;;;;;;5084126;28;20293;-55
2022/03/11 06:38:12;;;;;;;12.40;5.10;;;-8.20;99.90;;;;;;5093917;28;20402;-57
2022/03/11 06:40:38;;;;;;;13.00;4.70;;;-8.20;99.90;;;;;;5078932;28;20921;-58
2022/03/11 06:43:04;;;;;;;15.47;5.83;;;-8.20;99.90;;;;;;5092806;28;20555;-55
2022/03/11 06:45:30;;;;;;;17.13;6.63;;;-8.10;99.90;;;;;;5086116;28;20273;-58
2022/03/11 06:47:56;;;;;;;11.80;3.83;;;-7.90;99.90;;;;;;5093955;28;20185;-56
2022/03/11 06:50:22;;;;;;;12.73;5.13;;;-7.80;99.90;;;;;;5088411;28;20220;-57
2022/03/11 06:52:47;;;;;;;12.57;5.57;;;-7.80;99.90;;;;;;5063854;28;20189;-56
2022/03/11 06:55:13;;;;;;;15.63;6.47;;;-7.80;99.90;;;;;;5083575;28;20608;-57
2022/03/11 06:57:39;;;;;;;11.00;5.23;;;-7.60;99.90;;;;;;5075595;28;20268;-57
2022/03/11 07:00:07;;;;;;;12.43;4.20;;;-7.50;99.90;;;;;;5090590;28;20524;-53
2022/03/11 07:02:34;;;;;;;9.70;4.00;;;-7.60;99.90;;;;;;5079399;28;20215;-57
2022/03/11 07:05:00;;;;;;;11.33;4.77;;;-7.60;99.90;;;;;;5080035;28;20509;-57
2022/03/11 07:07:29;;;;;;;10.60;3.50;;;-7.50;99.90;;;;;;5073808;28;20504;-58
2022/03/11 07:09:55;;;;;;;11.57;4.27;;;-7.40;99.90;;;;;;5080671;28;20181;-56
2022/03/11 07:12:20;;;;;;;12.40;6.00;;;-7.30;99.90;;;;;;5074824;28;20425;-56
2022/03/11 07:14:48;;;;;;;11.47;5.00;;;-7.30;99.90;;;;;;5094634;28;20219;-59
2022/03/11 07:17:14;;;;;;;10.03;4.00;;;-7.30;99.90;;;;;;5092664;28;20197;-57
2022/03/11 07:19:40;;;;;;;13.63;4.53;;;-7.30;99.90;;;;;;5069970;28;20485;-55
2022/03/11 07:22:06;;;;;;;10.53;3.77;;;-7.30;99.90;;;;;;5089605;28;20457;-56
2022/03/11 07:24:32;;;;;;;7.93;3.43;;;-7.20;99.90;;;;;;5070610;28;20182;-57
2022/03/11 07:26:59;;;;;;;10.70;3.33;;;-7.20;99.90;;;;;;5088752;28;20625;-54
2022/03/11 07:29:25;;;;;;;16.97;5.97;;;-7.10;99.90;;;;;;5070730;28;20426;-56
2022/03/11 07:31:51;;;;;;;11.10;4.60;;;-7.00;99.90;;;;;;5085550;28;21483;-59
2022/03/11 07:34:17;;;;;;;11.13;3.27;;;-6.90;99.90;;;;;;5073511;28;20608;-57
2022/03/11 07:36:43;;;;;;;9.17;3.37;;;-6.90;99.90;;;;;;5092334;28;20328;-59
2022/03/11 07:39:10;;;;;;;7.40;3.43;;;-6.90;99.90;;;;;;5091631;28;20460;-57
2022/03/11 07:41:37;;;;;;;7.63;3.43;;;-7.00;99.90;;;;;;5080757;28;20862;-57
2022/03/11 07:44:04;;;;;;;15.50;4.10;;;-6.90;99.90;;;;;;5085639;28;20445;-58
2022/03/11 07:46:30;;;;;;;8.80;3.57;;;-6.80;99.90;;;;;;5083259;28;20894;-57
2022/03/11 07:48:57;;;;;;;7.57;3.30;;;-6.70;99.90;;;;;;5089559;28;20429;-57
2022/03/11 07:51:24;;;;;;;10.03;3.90;;;-6.60;99.90;;;;;;5091999;28;20417;-58
2022/03/11 07:53:50;;;;;;;9.63;3.27;;;-6.50;99.90;;;;;;5086811;28;20522;-56
2022/03/11 07:56:16;;;;;;;12.53;3.33;;;-6.50;99.90;;;;;;5081547;28;20461;-56
2022/03/11 07:58:42;;;;;;;9.80;3.90;;;-6.50;99.90;;;;;;5090248;28;21373;-57
2022/03/11 08:01:09;;;;;;;15.80;4.47;;;-6.40;99.90;;;;;;5083398;28;20197;-58
2022/03/11 08:03:37;;;;;;;11.80;4.37;;;-6.30;99.90;;;;;;5086287;28;20176;-57
2022/03/11 08:06:04;;;;;;;9.70;4.23;;;-6.30;99.90;;;;;;5073501;28;20833;-60
2022/03/11 08:08:29;;;;;;;8.73;3.30;;;-6.20;99.90;;;;;;5091249;28;20191;-63
2022/03/11 08:10:55;;;;;;;14.67;5.17;;;-6.20;99.90;;;;;;5092281;28;20504;-54
2022/03/11 08:13:21;;;;;;;8.30;3.73;;;-6.20;99.90;;;;;;5092228;28;20189;-57
2022/03/11 08:15:48;;;;;;;6.93;3.27;;;-6.20;99.90;;;;;;5090211;28;20225;-57
2022/03/11 08:18:14;;;;;;;7.63;3.90;;;-6.30;99.90;;;;;;5092083;28;20180;-58
2022/03/11 08:20:40;;;;;;;6.73;3.43;;;-6.30;99.90;;;;;;5090551;28;20184;-57
2022/03/11 08:23:06;;;;;;;7.77;2.80;;;-6.10;99.90;;;;;;5091099;28;20219;-57
2022/03/11 08:25:32;;;;;;;4.80;2.67;;;-6.00;99.90;;;;;;5072387;28;20418;-56
2022/03/11 08:27:58;;;;;;;8.67;4.13;;;-6.10;99.90;;;;;;5090825;28;20272;-57
2022/03/11 08:30:25;;;;;;;7.97;2.63;;;-6.00;99.80;;;;;;5072548;28;20226;-62
2022/03/11 08:32:52;;;;;;;11.27;3.40;;;-5.90;99.70;;;;;;5068582;28;20915;-56
2022/03/11 08:35:19;;;;;;;6.47;4.03;;;-5.80;99.70;;;;;;5071249;28;20506;-57
2022/03/11 08:37:46;;;;;;;7.07;2.60;;;-5.70;98.90;;;;;;5071138;28;20173;-57
2022/03/11 08:40:13;;;;;;;11.20;3.40;;;-5.70;98.50;;;;;;5071766;28;20179;-58
2022/03/11 08:42:41;;;;;;;5.93;2.63;;;-5.60;98.40;;;;;;5069195;28;20181;-60
2022/03/11 08:45:10;;;;;;;10.00;2.80;;;-5.60;98.80;;;;;;5071266;28;20184;-55
2022/03/11 08:47:36;;;;;;;9.93;4.43;;;-5.50;98.40;;;;;;5071301;28;20625;-58
2022/03/11 08:50:05;;;;;;;5.43;2.53;;;-5.50;97.80;;;;;;5069866;28;20633;-61
2022/03/11 08:52:31;;;;;;;8.87;3.63;;;-5.60;97.30;;;;;;5070820;28;20181;-68
2022/03/11 08:54:57;;;;;;;3.80;1.93;;;-5.40;97.80;;;;;;5070169;28;20539;-58
2022/03/11 08:57:24;;;;;;;11.10;4.60;;;-5.40;96.60;;;;;;5070686;28;20197;-60
2022/03/11 08:59:50;;;;;;;7.27;2.83;;;-5.30;97.00;;;;;;5071048;28;20182;-59
2022/03/11 09:02:16;;;;;;;5.03;2.87;;;-5.30;97.10;;;;;;5069423;28;20203;-59
2022/03/11 09:04:43;;;;;;;10.70;4.30;;;-5.30;96.90;;;;;;5071069;28;20181;-59
2022/03/11 09:07:09;;;;;;;19.43;4.43;;;-5.30;97.10;;;;;;5068427;28;20595;-58
2022/03/11 09:09:36;;;;;;;10.37;3.40;;;-5.10;96.80;;;;;;5070833;28;20223;-59
2022/03/11 09:12:03;;;;;;;6.97;3.50;;;-5.20;96.40;;;;;;5070787;28;20269;-56
2022/03/11 09:14:30;;;;;;;5.53;2.17;;;-5.10;96.50;;;;;;5070943;28;20190;-59
2022/03/11 09:16:56;;;;;;;8.07;3.10;;;-5.00;96.40;;;;;;5070395;28;20575;-60
2022/03/11 09:19:22;;;;;;;5.93;1.70;;;-4.90;96.10;;;;;;5069435;28;20177;-59
2022/03/11 09:21:47;;;;;;;6.17;2.93;;;-4.90;95.80;;;;;;5070294;28;20260;-59
2022/03/11 09:24:13;;;;;;;7.97;3.47;;;-4.80;95.60;;;;;;5070914;28;20292;-57
2022/03/11 09:26:39;;;;;;;11.87;4.13;;;-4.80;95.50;;;;;;5068860;28;20185;-61
2022/03/11 09:29:06;;;;;;;5.63;2.77;;;-4.90;95.60;;;;;;5053242;28;20204;-58
2022/03/11 09:31:32;;;;;;;11.30;3.00;;;-4.80;96.20;;;;;;5070645;28;20188;-58
2022/03/11 09:33:58;;;;;;;9.20;2.47;;;-4.60;96.20;;;;;;5091335;28;20184;-59
2022/03/11 09:36:25;;;;;;;3.73;1.90;;;-4.60;95.90;;;;;;5072601;28;20565;-58
2022/03/11 09:38:51;;;;;;;17.67;5.07;;;-4.50;95.70;;;;;;5090331;28;20459;-58
2022/03/11 09:41:20;;;;;;;15.30;2.73;;;-4.30;96.40;;;;;;5090830;28;20200;-57
2022/03/11 09:43:46;;;;;;;9.60;3.07;;;-4.20;95.40;;;;;;5090911;28;20184;-56
2022/03/11 09:46:14;;;;;;;11.10;4.10;;;-4.30;95.20;;;;;;5072031;28;20265;-61
2022/03/11 09:48:41;;;;;;;8.17;2.47;;;-4.30;95.60;;;;;;5090021;28;20181;-59
2022/03/11 09:51:11;;;;;;;7.50;2.90;;;-4.20;95.10;;;;;;5090559;28;20219;-62
2022/03/11 09:53:37;;;;;;;10.43;3.67;;;-4.30;95.10;;;;;;5089751;28;20197;-62
2022/03/11 09:56:04;;;;;;;8.87;3.50;;;-4.20;95.60;;;;;;5072058;28;20277;-59
2022/03/11 09:58:29;;;;;;;5.27;2.30;;;-4.10;95.80;;;;;;5090634;28;20178;-60
2022/03/11 10:00:55;;;;;;;14.93;3.70;;;-4.10;94.60;;;;;;5055248;28;20204;-60
2022/03/11 10:03:22;;;;;;;8.27;2.63;;;-3.90;95.70;;;;;;5090886;28;20523;-55
2022/03/11 10:05:53;;;;;;;7.17;3.07;;;-3.80;95.50;;;;;;5090267;28;20276;-61
2022/03/11 10:08:35;;;;;;;7.17;2.50;;;-3.80;95.40;;;;;;5090010;28;20177;-60
2022/03/11 10:11:25;;;;;;;5.77;2.67;;;-3.90;95.70;;;;;;5071863;28;20191;-59
2022/03/11 10:13:53;;;;;;;8.50;2.80;;;-3.90;95.30;;;;;;5072642;28;20183;-56
2022/03/11 10:16:24;;;;;;;10.37;3.07;;;-3.90;94.80;;;;;;5090097;28;20358;-62
2022/03/11 10:19:10;;;;;;;6.50;3.03;;;-3.70;95.50;;;;;;5074889;28;20265;-59
2022/03/11 10:21:41;;;;;;;14.63;3.23;;;-3.60;94.90;;;;;;5093968;28;20735;-58
2022/03/11 10:24:18;;;;;;;4.93;2.60;;;-3.50;94.70;;;;;;5093977;28;20205;-61
2022/03/11 10:26:48;;;;;;;13.67;3.13;;;-3.40;93.60;;;;;;5093780;28;20278;-61
2022/03/11 10:29:25;;;;;;;9.03;2.60;;;-3.50;94.00;;;;;;5093698;28;20545;-59
2022/03/11 10:31:53;;;;;;;7.87;3.10;;;-3.30;94.10;;;;;;5093525;28;20459;-58
2022/03/11 10:34:21;;;;;;;13.30;3.60;;;-3.20;93.80;;;;;;5076305;28;20188;-62
2022/03/11 10:36:54;;;;;;;4.70;2.10;;;-3.00;93.60;;;;;;5093201;28;20205;-58
2022/03/11 10:39:32;;;;;;;6.03;2.20;;;-2.90;91.70;;;;;;5092823;28;20260;-61
2022/03/11 10:42:23;;;;;;;4.57;2.00;;;-2.80;92.40;;;;;;5086865;28;20188;-62
2022/03/11 10:44:59;;;;;;;9.40;2.83;;;-2.70;91.40;;;;;;5091756;28;20369;-63
2022/03/11 10:47:29;;;;;;;21.00;6.10;;;-2.70;90.60;;;;;;5090113;28;20198;-57
2022/03/11 10:49:57;;;;;;;5.53;2.03;;;-2.60;89.40;;;;;;5091256;28;20654;-62
2022/03/11 10:52:31;;;;;;;5.13;2.30;;;-2.70;86.00;;;;;;5072526;28;20207;-65
2022/03/11 10:54:58;;;;;;;4.63;2.13;;;-2.70;85.10;;;;;;5091002;28;20187;-59
2022/03/11 10:57:38;;;;;;;2.40;1.50;;;-2.90;83.60;;;;;;5091196;28;20199;-58
2022/03/11 11:00:18;;;;;;;4.17;2.43;;;-2.90;83.40;;;;;;5091542;28;20190;-58
2022/03/11 11:02:52;;;;;;;6.57;2.17;;;-2.70;84.50;;;;;;5091420;28;20198;-55
2022/03/11 11:05:19;;;;;;;9.40;2.10;;;-2.50;83.60;;;;;;5091298;28;20215;-54
2022/03/11 11:07:45;;;;;;;9.07;1.87;;;-2.40;84.00;;;;;;5090878;28;20217;-58
2022/03/11 11:10:12;;;;;;;14.17;3.07;;;-2.40;83.10;;;;;;5090436;28;20196;-62
2022/03/11 11:12:39;;;;;;;8.13;2.63;;;-2.40;82.70;;;;;;5071420;28;20616;-59
2022/03/11 11:15:06;;;;;;;5.10;1.70;;;-2.30;82.90;;;;;;5089804;28;20186;-57
2022/03/11 11:17:36;;;;;;;8.53;2.80;;;-2.30;83.30;;;;;;5071824;28;20194;-59
2022/03/11 11:20:04;;;;;;;5.53;2.03;;;-2.40;83.10;;;;;;5089915;28;20206;-54
2022/03/11 11:22:31;;;;;;;5.50;2.10;;;-2.30;82.80;;;;;;5090865;28;20205;-58
2022/03/11 11:25:02;;;;;;;4.97;2.00;;;-2.20;82.90;;;;;;5071229;28;20203;-58
2022/03/11 11:27:30;;;;;;;6.20;2.67;;;-2.00;81.70;;;;;;5091758;28;20188;-58
2022/03/11 11:29:57;;;;;;;4.73;2.00;;;-2.10;79.70;;;;;;5089373;28;20572;-61
2022/03/11 11:32:23;;;;;;;6.27;1.93;;;-2.00;80.10;;;;;;5074713;28;20271;-59
2022/03/11 11:34:49;;;;;;;5.67;2.47;;;-1.70;80.30;;;;;;5091990;28;20588;-56
2022/03/11 11:37:41;;;;;;;6.90;2.10;;;-1.60;79.90;;;;;;5081244;28;20286;-58
2022/03/11 11:40:38;;;;;;;5.33;2.20;;;-1.70;80.60;;;;;;5060992;28;20207;-61
2022/03/11 11:43:25;;;;;;;4.60;1.90;;;-1.40;80.00;;;;;;5078005;28;20195;-55
2022/03/11 11:45:54;;;;;;;5.10;2.90;;;-1.40;76.60;;;;;;5091295;28;20562;-58
2022/03/11 11:48:35;;;;;;;6.63;2.10;;;-1.30;76.40;;;;;;5089107;28;20204;-57
2022/03/11 11:51:03;;;;;;;7.40;2.37;;;-1.20;74.40;;;;;;5090987;28;20192;-55
2022/03/11 11:53:41;;;;;;;15.83;2.80;;;-0.70;75.50;;;;;;5080152;28;20268;-57
2022/03/11 11:56:26;;;;;;;8.13;2.50;;;-0.50;75.00;;;;;;5072661;28;20727;-57
2022/03/11 11:58:52;;;;;;;16.53;2.20;;;-0.30;73.20;;;;;;5069898;28;20169;-59
2022/03/11 12:01:40;;;;;;;5.70;2.63;;;0.00;71.30;;;;;;5070571;28;20227;-56
2022/03/11 12:04:30;;;;;;;6.93;2.23;;;0.40;69.10;;;;;;5071900;28;20281;-56
2022/03/11 12:07:05;;;;;;;4.67;2.03;;;1.60;67.60;;;;;;5070937;28;20209;-56
2022/03/11 12:12:20;;;;;;;4.37;1.87;;;2.20;62.60;;;;;;5071525;28;20183;-55
2022/03/11 12:14:59;;;;;;;17.63;3.43;;;2.40;59.70;;;;;;5071023;28;20639;-54
2022/03/11 12:17:44;;;;;;;7.07;2.17;;;3.00;60.30;;;;;;5078805;28;20231;-58
2022/03/11 12:20:26;;;;;;;11.30;2.70;;;3.90;57.10;;;;;;5091795;28;20650;-55
2022/03/11 12:23:19;;;;;;;13.93;3.00;;;3.90;57.90;;;;;;5090368;28;20177;-55
2022/03/11 12:25:54;;;;;;;5.67;2.10;;;4.60;59.50;;;;;;5086561;28;20539;-53
2022/03/11 12:28:33;;;;;;;6.27;2.17;;;4.60;56.20;;;;;;5091974;28;20200;-56
2022/03/11 12:31:00;;;;;;;20.27;3.10;;;4.80;56.30;;;;;;5072591;28;20185;-58
2022/03/11 12:33:34;;;;;;;7.40;2.30;;;4.70;55.40;;;;;;5073190;28;20564;-59
2022/03/11 12:36:04;;;;;;;7.57;2.90;;;4.00;55.20;;;;;;5071908;28;20216;-58
2022/03/11 12:38:37;;;;;;;9.50;2.50;;;3.50;55.10;;;;;;5092070;28;20175;-55
2022/03/11 12:41:21;;;;;;;11.17;3.10;;;4.00;56.70;;;;;;5072937;28;20608;-57
2022/03/11 12:43:47;;;;;;;5.50;2.37;;;4.50;55.30;;;;;;5091736;28;20191;-57
2022/03/11 12:46:13;;;;;;;5.57;2.70;;;3.80;53.80;;;;;;5091128;28;20699;-58